sensor_id;sensor_type;location;lat;lon;timestamp;P1;durP1;ratioP1;P2;durP2;ratioP2
40807;SDS011;26523;52.504;13.498;2023-05-10T00:00:20;6.38;;;3.55;;
40807;SDS011;26523;52.504;13.498;2023-05-10T00:02:47;7.70;;;3.70;;
40807;SDS011;26523;52.504;13.498;2023-05-10T00:05:13;8.75;;;4.00;;
40807;SDS011;26523;52.504;13.498;2023-05-10T00:07:39;9.32;;;4.10;;
40807;SDS011;26523;52.504;13.498;2023-05-10T00:10:04;9.73;;;3.72;;
40807;SDS011;26523;52.504;13.498;2023-05-10T00:12:30;8.40;;;4.00;;
40807;SDS011;26523;52.504;13.498;2023-05-10T00:14:56;8.52;;;3.70;;
40807;SDS011;26523;52.504;13.498;2023-05-10T00:17:22;8.02;;;3.80;;
40807;SDS011;26523;52.504;13.498;2023-05-10T00:19:47;12.98;;;3.88;;
40807;SDS011;26523;52.504;13.498;2023-05-10T00:22:13;8.18;;;3.83;;
40807;SDS011;26523;52.504;13.498;2023-05-10T00:24:38;10.40;;;4.10;;
40807;SDS011;26523;52.504;13.498;2023-05-10T00:27:04;9.55;;;3.83;;
40807;SDS011;26523;52.504;13.498;2023-05-10T00:29:30;9.85;;;4.05;;
40807;SDS011;26523;52.504;13.498;2023-05-10T00:31:56;6.95;;;3.50;;
40807;SDS011;26523;52.504;13.498;2023-05-10T00:34:22;6.93;;;4.18;;
40807;SDS011;26523;52.504;13.498;2023-05-10T00:36:48;7.45;;;3.63;;
40807;SDS011;26523;52.504;13.498;2023-05-10T00:39:13;7.57;;;3.83;;
40807;SDS011;26523;52.504;13.498;2023-05-10T00:41:39;6.78;;;3.50;;
40807;SDS011;26523;52.504;13.498;2023-05-10T00:44:05;8.45;;;3.50;;
40807;SDS011;26523;52.504;13.498;2023-05-10T00:46:31;7.32;;;2.88;;
40807;SDS011;26523;52.504;13.498;2023-05-10T00:48:57;9.00;;;3.63;;
40807;SDS011;26523;52.504;13.498;2023-05-10T00:51:22;8.10;;;3.63;;
40807;SDS011;26523;52.504;13.498;2023-05-10T00:53:49;8.40;;;3.15;;
40807;SDS011;26523;52.504;13.498;2023-05-10T00:56:16;7.57;;;3.85;;
40807;SDS011;26523;52.504;13.498;2023-05-10T00:58:42;8.50;;;3.67;;
40807;SDS011;26523;52.504;13.498;2023-05-10T01:01:08;8.07;;;3.92;;
40807;SDS011;26523;52.504;13.498;2023-05-10T01:03:34;6.60;;;3.72;;
40807;SDS011;26523;52.504;13.498;2023-05-10T01:06:01;5.93;;;3.17;;
40807;SDS011;26523;52.504;13.498;2023-05-10T01:08:27;6.65;;;3.45;;
40807;SDS011;26523;52.504;13.498;2023-05-10T01:10:53;7.50;;;3.70;;
40807;SDS011;26523;52.504;13.498;2023-05-10T01:13:35;6.07;;;3.75;;
40807;SDS011;26523;52.504;13.498;2023-05-10T01:16:03;8.18;;;4.00;;
40807;SDS011;26523;52.504;13.498;2023-05-10T01:18:30;8.00;;;3.85;;
40807;SDS011;26523;52.504;13.498;2023-05-10T01:24:18;10.57;;;4.13;;
40807;SDS011;26523;52.504;13.498;2023-05-10T01:27:17;12.65;;;4.75;;
40807;SDS011;26523;52.504;13.498;2023-05-10T01:30:08;8.13;;;3.95;;
40807;SDS011;26523;52.504;13.498;2023-05-10T01:35:45;10.75;;;4.47;;
40807;SDS011;26523;52.504;13.498;2023-05-10T01:38:20;6.82;;;3.90;;
40807;SDS011;26523;52.504;13.498;2023-05-10T01:42:10;10.35;;;4.38;;
40807;SDS011;26523;52.504;13.498;2023-05-10T01:44:22;6.50;;;3.50;;
40807;SDS011;26523;52.504;13.498;2023-05-10T01:46:58;11.50;;;3.85;;
40807;SDS011;26523;52.504;13.498;2023-05-10T01:49:32;7.80;;;4.10;;
40807;SDS011;26523;52.504;13.498;2023-05-10T01:52:08;11.27;;;5.10;;
40807;SDS011;26523;52.504;13.498;2023-05-10T01:54:38;7.45;;;3.65;;
40807;SDS011;26523;52.504;13.498;2023-05-10T01:57:09;11.15;;;4.13;;
40807;SDS011;26523;52.504;13.498;2023-05-10T01:59:39;10.07;;;4.10;;
40807;SDS011;26523;52.504;13.498;2023-05-10T02:02:07;8.32;;;4.18;;
40807;SDS011;26523;52.504;13.498;2023-05-10T02:04:37;7.97;;;3.80;;
40807;SDS011;26523;52.504;13.498;2023-05-10T02:07:04;8.07;;;4.40;;
40807;SDS011;26523;52.504;13.498;2023-05-10T02:09:32;8.25;;;4.22;;
40807;SDS011;26523;52.504;13.498;2023-05-10T02:11:58;7.13;;;4.10;;
40807;SDS011;26523;52.504;13.498;2023-05-10T02:14:27;8.85;;;3.97;;
40807;SDS011;26523;52.504;13.498;2023-05-10T02:16:56;8.25;;;3.83;;
40807;SDS011;26523;52.504;13.498;2023-05-10T02:19:24;7.97;;;3.75;;
40807;SDS011;26523;52.504;13.498;2023-05-10T02:21:51;8.68;;;3.90;;
40807;SDS011;26523;52.504;13.498;2023-05-10T02:24:17;11.32;;;4.05;;
40807;SDS011;26523;52.504;13.498;2023-05-10T02:26:44;7.72;;;4.20;;
40807;SDS011;26523;52.504;13.498;2023-05-10T02:29:12;8.60;;;4.20;;
40807;SDS011;26523;52.504;13.498;2023-05-10T02:31:38;9.48;;;3.90;;
40807;SDS011;26523;52.504;13.498;2023-05-10T02:34:05;11.52;;;4.53;;
40807;SDS011;26523;52.504;13.498;2023-05-10T02:36:32;9.60;;;3.92;;
40807;SDS011;26523;52.504;13.498;2023-05-10T02:38:58;12.90;;;4.25;;
40807;SDS011;26523;52.504;13.498;2023-05-10T02:41:26;7.40;;;3.47;;
40807;SDS011;26523;52.504;13.498;2023-05-10T02:43:55;9.13;;;3.63;;
40807;SDS011;26523;52.504;13.498;2023-05-10T02:46:24;8.48;;;4.00;;
40807;SDS011;26523;52.504;13.498;2023-05-10T02:48:50;8.98;;;4.05;;
40807;SDS011;26523;52.504;13.498;2023-05-10T02:51:15;8.88;;;4.05;;
40807;SDS011;26523;52.504;13.498;2023-05-10T02:53:43;8.52;;;4.00;;
40807;SDS011;26523;52.504;13.498;2023-05-10T02:56:12;7.43;;;3.90;;
40807;SDS011;26523;52.504;13.498;2023-05-10T02:58:40;7.32;;;3.75;;
40807;SDS011;26523;52.504;13.498;2023-05-10T03:01:06;9.80;;;4.03;;
40807;SDS011;26523;52.504;13.498;2023-05-10T03:03:32;9.82;;;4.03;;
40807;SDS011;26523;52.504;13.498;2023-05-10T03:05:58;8.18;;;3.78;;
40807;SDS011;26523;52.504;13.498;2023-05-10T03:08:24;7.78;;;4.13;;
40807;SDS011;26523;52.504;13.498;2023-05-10T03:10:54;9.60;;;4.20;;
40807;SDS011;26523;52.504;13.498;2023-05-10T03:16:40;8.23;;;3.38;;
40807;SDS011;26523;52.504;13.498;2023-05-10T03:19:16;12.32;;;4.15;;
40807;SDS011;26523;52.504;13.498;2023-05-10T03:21:49;8.93;;;3.45;;
40807;SDS011;26523;52.504;13.498;2023-05-10T03:24:18;9.40;;;3.58;;
40807;SDS011;26523;52.504;13.498;2023-05-10T03:26:47;9.32;;;3.63;;
40807;SDS011;26523;52.504;13.498;2023-05-10T03:29:15;12.30;;;4.22;;
40807;SDS011;26523;52.504;13.498;2023-05-10T03:31:41;8.40;;;3.67;;
40807;SDS011;26523;52.504;13.498;2023-05-10T03:34:07;6.28;;;3.47;;
40807;SDS011;26523;52.504;13.498;2023-05-10T03:36:33;8.68;;;3.70;;
40807;SDS011;26523;52.504;13.498;2023-05-10T03:38:59;9.07;;;3.70;;
40807;SDS011;26523;52.504;13.498;2023-05-10T03:41:24;10.13;;;3.95;;
40807;SDS011;26523;52.504;13.498;2023-05-10T03:43:50;12.32;;;3.55;;
40807;SDS011;26523;52.504;13.498;2023-05-10T03:46:16;7.10;;;3.83;;
40807;SDS011;26523;52.504;13.498;2023-05-10T03:48:42;11.55;;;4.30;;
40807;SDS011;26523;52.504;13.498;2023-05-10T03:51:08;9.45;;;3.60;;
40807;SDS011;26523;52.504;13.498;2023-05-10T03:53:33;9.52;;;3.58;;
40807;SDS011;26523;52.504;13.498;2023-05-10T03:55:59;8.13;;;3.10;;
40807;SDS011;26523;52.504;13.498;2023-05-10T03:58:24;14.02;;;4.40;;
40807;SDS011;26523;52.504;13.498;2023-05-10T04:00:51;8.02;;;4.30;;
40807;SDS011;26523;52.504;13.498;2023-05-10T04:03:16;11.20;;;3.47;;
40807;SDS011;26523;52.504;13.498;2023-05-10T04:05:42;13.15;;;3.75;;
40807;SDS011;26523;52.504;13.498;2023-05-10T04:08:08;10.20;;;3.70;;
40807;SDS011;26523;52.504;13.498;2023-05-10T04:10:34;11.32;;;3.80;;
40807;SDS011;26523;52.504;13.498;2023-05-10T04:13:00;16.13;;;4.25;;
40807;SDS011;26523;52.504;13.498;2023-05-10T04:15:25;21.15;;;3.85;;
40807;SDS011;26523;52.504;13.498;2023-05-10T04:17:51;7.70;;;3.33;;
40807;SDS011;26523;52.504;13.498;2023-05-10T04:20:17;7.20;;;3.50;;
40807;SDS011;26523;52.504;13.498;2023-05-10T04:22:42;8.77;;;3.28;;
40807;SDS011;26523;52.504;13.498;2023-05-10T04:25:08;8.95;;;3.60;;
40807;SDS011;26523;52.504;13.498;2023-05-10T04:27:34;29.38;;;4.03;;
40807;SDS011;26523;52.504;13.498;2023-05-10T04:30:00;15.25;;;3.13;;
40807;SDS011;26523;52.504;13.498;2023-05-10T04:32:26;13.13;;;3.58;;
40807;SDS011;26523;52.504;13.498;2023-05-10T04:34:51;10.85;;;3.30;;
40807;SDS011;26523;52.504;13.498;2023-05-10T04:37:18;14.35;;;3.75;;
40807;SDS011;26523;52.504;13.498;2023-05-10T04:39:44;8.13;;;3.13;;
40807;SDS011;26523;52.504;13.498;2023-05-10T04:42:09;5.75;;;2.92;;
40807;SDS011;26523;52.504;13.498;2023-05-10T04:44:36;20.80;;;4.15;;
40807;SDS011;26523;52.504;13.498;2023-05-10T04:47:02;16.27;;;3.70;;
40807;SDS011;26523;52.504;13.498;2023-05-10T04:49:28;9.10;;;3.55;;
40807;SDS011;26523;52.504;13.498;2023-05-10T04:51:54;8.18;;;3.20;;
40807;SDS011;26523;52.504;13.498;2023-05-10T04:54:20;6.63;;;3.38;;
40807;SDS011;26523;52.504;13.498;2023-05-10T04:56:46;7.97;;;3.38;;
40807;SDS011;26523;52.504;13.498;2023-05-10T04:59:11;10.55;;;3.28;;
40807;SDS011;26523;52.504;13.498;2023-05-10T05:01:37;12.63;;;3.13;;
40807;SDS011;26523;52.504;13.498;2023-05-10T05:04:03;6.05;;;2.67;;
40807;SDS011;26523;52.504;13.498;2023-05-10T05:06:29;5.60;;;3.22;;
40807;SDS011;26523;52.504;13.498;2023-05-10T05:08:54;4.72;;;2.70;;
40807;SDS011;26523;52.504;13.498;2023-05-10T05:11:20;10.38;;;3.55;;
40807;SDS011;26523;52.504;13.498;2023-05-10T05:13:46;8.25;;;3.10;;
40807;SDS011;26523;52.504;13.498;2023-05-10T05:16:11;11.20;;;3.00;;
40807;SDS011;26523;52.504;13.498;2023-05-10T05:18:37;12.82;;;3.63;;
40807;SDS011;26523;52.504;13.498;2023-05-10T05:21:03;6.55;;;3.25;;
40807;SDS011;26523;52.504;13.498;2023-05-10T05:23:37;9.80;;;3.47;;
40807;SDS011;26523;52.504;13.498;2023-05-10T05:26:03;6.40;;;2.80;;
40807;SDS011;26523;52.504;13.498;2023-05-10T05:28:29;10.32;;;3.70;;
40807;SDS011;26523;52.504;13.498;2023-05-10T05:30:57;8.57;;;3.20;;
40807;SDS011;26523;52.504;13.498;2023-05-10T05:33:23;6.22;;;2.70;;
40807;SDS011;26523;52.504;13.498;2023-05-10T05:35:48;6.07;;;2.67;;
40807;SDS011;26523;52.504;13.498;2023-05-10T05:38:15;9.88;;;2.60;;
40807;SDS011;26523;52.504;13.498;2023-05-10T05:40:42;6.82;;;2.65;;
40807;SDS011;26523;52.504;13.498;2023-05-10T05:43:08;4.90;;;2.40;;
40807;SDS011;26523;52.504;13.498;2023-05-10T05:45:33;5.72;;;2.60;;
40807;SDS011;26523;52.504;13.498;2023-05-10T05:47:59;6.72;;;3.35;;
40807;SDS011;26523;52.504;13.498;2023-05-10T05:50:25;4.07;;;2.15;;
40807;SDS011;26523;52.504;13.498;2023-05-10T05:52:50;6.57;;;2.35;;
40807;SDS011;26523;52.504;13.498;2023-05-10T05:55:16;8.98;;;2.47;;
40807;SDS011;26523;52.504;13.498;2023-05-10T05:57:42;13.82;;;2.47;;
40807;SDS011;26523;52.504;13.498;2023-05-10T06:00:08;4.28;;;2.17;;
40807;SDS011;26523;52.504;13.498;2023-05-10T06:02:34;6.40;;;2.63;;
40807;SDS011;26523;52.504;13.498;2023-05-10T06:04:59;5.38;;;2.15;;
40807;SDS011;26523;52.504;13.498;2023-05-10T06:07:25;7.28;;;2.38;;
40807;SDS011;26523;52.504;13.498;2023-05-10T06:09:50;6.93;;;2.38;;
40807;SDS011;26523;52.504;13.498;2023-05-10T06:12:16;3.33;;;1.80;;
40807;SDS011;26523;52.504;13.498;2023-05-10T06:14:42;3.97;;;2.03;;
40807;SDS011;26523;52.504;13.498;2023-05-10T06:17:07;4.68;;;2.22;;
40807;SDS011;26523;52.504;13.498;2023-05-10T06:19:33;5.63;;;1.95;;
40807;SDS011;26523;52.504;13.498;2023-05-10T06:21:58;4.00;;;1.88;;
40807;SDS011;26523;52.504;13.498;2023-05-10T06:24:24;5.68;;;1.98;;
40807;SDS011;26523;52.504;13.498;2023-05-10T06:26:50;3.67;;;1.70;;
40807;SDS011;26523;52.504;13.498;2023-05-10T06:29:15;3.35;;;1.85;;
40807;SDS011;26523;52.504;13.498;2023-05-10T06:31:41;3.20;;;1.90;;
40807;SDS011;26523;52.504;13.498;2023-05-10T06:34:07;3.15;;;1.83;;
40807;SDS011;26523;52.504;13.498;2023-05-10T06:36:33;5.65;;;1.40;;
40807;SDS011;26523;52.504;13.498;2023-05-10T06:38:59;3.25;;;1.60;;
40807;SDS011;26523;52.504;13.498;2023-05-10T06:41:24;3.65;;;2.00;;
40807;SDS011;26523;52.504;13.498;2023-05-10T06:43:50;4.50;;;1.48;;
40807;SDS011;26523;52.504;13.498;2023-05-10T06:46:16;3.72;;;1.58;;
40807;SDS011;26523;52.504;13.498;2023-05-10T06:48:41;3.13;;;1.63;;
40807;SDS011;26523;52.504;13.498;2023-05-10T06:51:07;3.80;;;1.80;;
40807;SDS011;26523;52.504;13.498;2023-05-10T06:53:32;3.70;;;1.70;;
40807;SDS011;26523;52.504;13.498;2023-05-10T06:55:58;3.90;;;1.92;;
40807;SDS011;26523;52.504;13.498;2023-05-10T06:58:24;4.53;;;1.45;;
40807;SDS011;26523;52.504;13.498;2023-05-10T07:00:49;3.45;;;1.67;;
40807;SDS011;26523;52.504;13.498;2023-05-10T07:03:15;3.92;;;1.77;;
40807;SDS011;26523;52.504;13.498;2023-05-10T07:05:41;6.53;;;1.60;;
40807;SDS011;26523;52.504;13.498;2023-05-10T07:08:07;4.30;;;2.00;;
40807;SDS011;26523;52.504;13.498;2023-05-10T07:10:33;4.72;;;2.25;;
40807;SDS011;26523;52.504;13.498;2023-05-10T07:12:59;7.70;;;2.67;;
40807;SDS011;26523;52.504;13.498;2023-05-10T07:15:26;3.13;;;1.98;;
40807;SDS011;26523;52.504;13.498;2023-05-10T07:17:51;4.30;;;1.90;;
40807;SDS011;26523;52.504;13.498;2023-05-10T07:20:17;6.70;;;1.70;;
40807;SDS011;26523;52.504;13.498;2023-05-10T07:22:43;5.40;;;1.80;;
40807;SDS011;26523;52.504;13.498;2023-05-10T07:25:09;2.45;;;1.55;;
40807;SDS011;26523;52.504;13.498;2023-05-10T07:27:35;6.15;;;2.05;;
40807;SDS011;26523;52.504;13.498;2023-05-10T07:30:01;5.15;;;1.70;;
40807;SDS011;26523;52.504;13.498;2023-05-10T07:32:27;5.80;;;1.92;;
40807;SDS011;26523;52.504;13.498;2023-05-10T07:34:53;3.40;;;1.90;;
40807;SDS011;26523;52.504;13.498;2023-05-10T07:37:18;2.65;;;1.60;;
40807;SDS011;26523;52.504;13.498;2023-05-10T07:39:44;5.32;;;2.00;;
40807;SDS011;26523;52.504;13.498;2023-05-10T07:42:10;3.72;;;1.60;;
40807;SDS011;26523;52.504;13.498;2023-05-10T07:44:35;5.28;;;1.90;;
40807;SDS011;26523;52.504;13.498;2023-05-10T07:47:01;4.40;;;2.38;;
40807;SDS011;26523;52.504;13.498;2023-05-10T07:49:27;4.28;;;1.60;;
40807;SDS011;26523;52.504;13.498;2023-05-10T07:51:52;8.38;;;2.03;;
40807;SDS011;26523;52.504;13.498;2023-05-10T07:54:18;3.22;;;1.70;;
40807;SDS011;26523;52.504;13.498;2023-05-10T07:56:43;3.50;;;1.80;;
40807;SDS011;26523;52.504;13.498;2023-05-10T07:59:14;5.32;;;2.10;;
40807;SDS011;26523;52.504;13.498;2023-05-10T08:01:41;3.75;;;1.90;;
40807;SDS011;26523;52.504;13.498;2023-05-10T08:04:07;4.57;;;1.73;;
40807;SDS011;26523;52.504;13.498;2023-05-10T08:06:33;5.43;;;1.95;;
40807;SDS011;26523;52.504;13.498;2023-05-10T08:08:59;3.15;;;1.73;;
40807;SDS011;26523;52.504;13.498;2023-05-10T08:11:25;3.88;;;2.15;;
40807;SDS011;26523;52.504;13.498;2023-05-10T08:13:52;4.20;;;1.70;;
40807;SDS011;26523;52.504;13.498;2023-05-10T08:16:18;3.78;;;2.33;;
40807;SDS011;26523;52.504;13.498;2023-05-10T08:18:45;5.15;;;2.17;;
40807;SDS011;26523;52.504;13.498;2023-05-10T08:21:11;3.40;;;1.70;;
40807;SDS011;26523;52.504;13.498;2023-05-10T08:23:38;5.50;;;1.88;;
40807;SDS011;26523;52.504;13.498;2023-05-10T08:26:04;5.18;;;1.92;;
40807;SDS011;26523;52.504;13.498;2023-05-10T08:28:30;2.83;;;1.70;;
40807;SDS011;26523;52.504;13.498;2023-05-10T08:30:55;5.97;;;2.10;;
40807;SDS011;26523;52.504;13.498;2023-05-10T08:33:21;6.57;;;1.85;;
40807;SDS011;26523;52.504;13.498;2023-05-10T08:35:47;2.75;;;1.60;;
40807;SDS011;26523;52.504;13.498;2023-05-10T08:38:12;5.20;;;1.90;;
40807;SDS011;26523;52.504;13.498;2023-05-10T08:40:39;3.35;;;1.75;;
40807;SDS011;26523;52.504;13.498;2023-05-10T08:43:08;3.25;;;1.40;;
40807;SDS011;26523;52.504;13.498;2023-05-10T08:45:39;4.68;;;1.75;;
40807;SDS011;26523;52.504;13.498;2023-05-10T08:48:07;3.78;;;1.67;;
40807;SDS011;26523;52.504;13.498;2023-05-10T08:50:37;9.95;;;2.10;;
40807;SDS011;26523;52.504;13.498;2023-05-10T08:53:11;4.07;;;1.95;;
40807;SDS011;26523;52.504;13.498;2023-05-10T08:55:39;4.35;;;1.85;;
40807;SDS011;26523;52.504;13.498;2023-05-10T08:58:07;6.97;;;1.85;;
40807;SDS011;26523;52.504;13.498;2023-05-10T09:00:34;3.97;;;1.85;;
40807;SDS011;26523;52.504;13.498;2023-05-10T09:03:00;4.53;;;1.80;;
40807;SDS011;26523;52.504;13.498;2023-05-10T09:05:26;3.58;;;1.60;;
40807;SDS011;26523;52.504;13.498;2023-05-10T09:07:52;6.38;;;2.03;;
40807;SDS011;26523;52.504;13.498;2023-05-10T09:10:18;5.85;;;2.30;;
40807;SDS011;26523;52.504;13.498;2023-05-10T09:12:44;6.05;;;1.77;;
40807;SDS011;26523;52.504;13.498;2023-05-10T09:15:10;11.00;;;2.17;;
40807;SDS011;26523;52.504;13.498;2023-05-10T09:17:38;6.15;;;1.65;;
40807;SDS011;26523;52.504;13.498;2023-05-10T09:20:05;5.57;;;2.53;;
40807;SDS011;26523;52.504;13.498;2023-05-10T09:22:31;4.40;;;1.90;;
40807;SDS011;26523;52.504;13.498;2023-05-10T09:27:30;4.75;;;1.92;;
40807;SDS011;26523;52.504;13.498;2023-05-10T09:29:55;6.80;;;1.88;;
40807;SDS011;26523;52.504;13.498;2023-05-10T09:32:21;4.45;;;2.10;;
40807;SDS011;26523;52.504;13.498;2023-05-10T09:34:47;4.43;;;1.90;;
40807;SDS011;26523;52.504;13.498;2023-05-10T09:37:15;2.45;;;1.38;;
40807;SDS011;26523;52.504;13.498;2023-05-10T09:39:40;3.80;;;2.03;;
40807;SDS011;26523;52.504;13.498;2023-05-10T09:42:09;3.88;;;1.50;;
40807;SDS011;26523;52.504;13.498;2023-05-10T09:44:35;3.97;;;1.80;;
40807;SDS011;26523;52.504;13.498;2023-05-10T09:47:01;4.43;;;1.63;;
40807;SDS011;26523;52.504;13.498;2023-05-10T09:49:28;6.20;;;1.80;;
40807;SDS011;26523;52.504;13.498;2023-05-10T09:51:59;7.03;;;2.17;;
40807;SDS011;26523;52.504;13.498;2023-05-10T09:54:34;3.72;;;1.75;;
40807;SDS011;26523;52.504;13.498;2023-05-10T09:57:00;4.05;;;1.77;;
40807;SDS011;26523;52.504;13.498;2023-05-10T09:59:26;5.35;;;2.05;;
40807;SDS011;26523;52.504;13.498;2023-05-10T10:01:55;5.57;;;1.60;;
40807;SDS011;26523;52.504;13.498;2023-05-10T10:04:22;6.50;;;1.70;;
40807;SDS011;26523;52.504;13.498;2023-05-10T10:06:58;4.10;;;1.88;;
40807;SDS011;26523;52.504;13.498;2023-05-10T10:09:25;3.17;;;1.92;;
40807;SDS011;26523;52.504;13.498;2023-05-10T10:11:51;5.43;;;1.90;;
40807;SDS011;26523;52.504;13.498;2023-05-10T10:14:21;3.95;;;2.03;;
40807;SDS011;26523;52.504;13.498;2023-05-10T10:16:49;6.82;;;2.15;;
40807;SDS011;26523;52.504;13.498;2023-05-10T10:19:15;4.22;;;1.73;;
40807;SDS011;26523;52.504;13.498;2023-05-10T10:21:43;7.25;;;2.10;;
40807;SDS011;26523;52.504;13.498;2023-05-10T10:24:09;3.78;;;1.67;;
40807;SDS011;26523;52.504;13.498;2023-05-10T10:26:34;4.30;;;2.08;;
40807;SDS011;26523;52.504;13.498;2023-05-10T10:29:18;3.67;;;1.75;;
40807;SDS011;26523;52.504;13.498;2023-05-10T10:32:06;3.22;;;1.90;;
40807;SDS011;26523;52.504;13.498;2023-05-10T10:34:43;5.85;;;1.88;;
40807;SDS011;26523;52.504;13.498;2023-05-10T10:37:09;3.30;;;1.85;;
40807;SDS011;26523;52.504;13.498;2023-05-10T10:39:35;5.00;;;1.83;;
40807;SDS011;26523;52.504;13.498;2023-05-10T10:42:01;3.47;;;1.83;;
40807;SDS011;26523;52.504;13.498;2023-05-10T10:52:28;3.60;;;2.00;;
40807;SDS011;26523;52.504;13.498;2023-05-10T11:00:17;3.90;;;2.17;;
40807;SDS011;26523;52.504;13.498;2023-05-10T11:07:54;5.55;;;1.85;;
40807;SDS011;26523;52.504;13.498;2023-05-10T11:10:22;4.35;;;1.83;;
40807;SDS011;26523;52.504;13.498;2023-05-10T11:13:05;5.53;;;1.83;;
40807;SDS011;26523;52.504;13.498;2023-05-10T11:15:35;8.25;;;2.63;;
40807;SDS011;26523;52.504;13.498;2023-05-10T11:18:23;3.95;;;2.00;;
40807;SDS011;26523;52.504;13.498;2023-05-10T11:25:58;3.75;;;1.80;;
40807;SDS011;26523;52.504;13.498;2023-05-10T11:28:26;3.53;;;2.03;;
40807;SDS011;26523;52.504;13.498;2023-05-10T11:30:52;2.85;;;1.58;;
40807;SDS011;26523;52.504;13.498;2023-05-10T11:33:19;4.30;;;2.10;;
40807;SDS011;26523;52.504;13.498;2023-05-10T11:35:45;4.88;;;1.98;;
40807;SDS011;26523;52.504;13.498;2023-05-10T11:38:11;5.20;;;1.90;;
40807;SDS011;26523;52.504;13.498;2023-05-10T11:40:38;2.70;;;1.73;;
40807;SDS011;26523;52.504;13.498;2023-05-10T11:43:07;4.40;;;2.05;;
40807;SDS011;26523;52.504;13.498;2023-05-10T11:45:35;4.07;;;1.40;;
40807;SDS011;26523;52.504;13.498;2023-05-10T11:48:01;3.80;;;1.67;;
40807;SDS011;26523;52.504;13.498;2023-05-10T11:50:27;5.55;;;1.80;;
40807;SDS011;26523;52.504;13.498;2023-05-10T11:52:54;4.25;;;1.67;;
40807;SDS011;26523;52.504;13.498;2023-05-10T11:55:21;5.88;;;1.90;;
40807;SDS011;26523;52.504;13.498;2023-05-10T11:57:47;6.25;;;1.92;;
40807;SDS011;26523;52.504;13.498;2023-05-10T12:00:16;4.15;;;2.05;;
40807;SDS011;26523;52.504;13.498;2023-05-10T12:02:41;7.38;;;2.10;;
40807;SDS011;26523;52.504;13.498;2023-05-10T12:05:08;4.88;;;1.95;;
40807;SDS011;26523;52.504;13.498;2023-05-10T12:07:34;5.20;;;2.20;;
40807;SDS011;26523;52.504;13.498;2023-05-10T12:10:04;6.28;;;1.90;;
40807;SDS011;26523;52.504;13.498;2023-05-10T12:12:37;5.95;;;1.80;;
40807;SDS011;26523;52.504;13.498;2023-05-10T12:15:10;8.02;;;1.90;;
40807;SDS011;26523;52.504;13.498;2023-05-10T12:17:46;7.50;;;1.95;;
40807;SDS011;26523;52.504;13.498;2023-05-10T12:20:20;7.67;;;2.00;;
40807;SDS011;26523;52.504;13.498;2023-05-10T12:22:50;3.60;;;1.70;;
40807;SDS011;26523;52.504;13.498;2023-05-10T12:25:17;2.80;;;1.48;;
40807;SDS011;26523;52.504;13.498;2023-05-10T12:27:48;5.05;;;1.73;;
40807;SDS011;26523;52.504;13.498;2023-05-10T12:30:25;4.90;;;1.80;;
40807;SDS011;26523;52.504;13.498;2023-05-10T12:32:52;3.22;;;1.77;;
40807;SDS011;26523;52.504;13.498;2023-05-10T12:35:19;5.63;;;1.88;;
40807;SDS011;26523;52.504;13.498;2023-05-10T12:37:49;2.38;;;1.63;;
40807;SDS011;26523;52.504;13.498;2023-05-10T12:40:17;6.47;;;1.95;;
40807;SDS011;26523;52.504;13.498;2023-05-10T12:42:43;5.18;;;1.67;;
40807;SDS011;26523;52.504;13.498;2023-05-10T12:45:11;6.65;;;1.52;;
40807;SDS011;26523;52.504;13.498;2023-05-10T12:47:37;5.85;;;1.70;;
40807;SDS011;26523;52.504;13.498;2023-05-10T12:50:04;3.65;;;1.50;;
40807;SDS011;26523;52.504;13.498;2023-05-10T12:52:30;4.50;;;1.63;;
40807;SDS011;26523;52.504;13.498;2023-05-10T12:54:59;2.70;;;1.33;;
40807;SDS011;26523;52.504;13.498;2023-05-10T12:57:25;4.10;;;1.45;;
40807;SDS011;26523;52.504;13.498;2023-05-10T12:59:52;5.57;;;1.80;;
40807;SDS011;26523;52.504;13.498;2023-05-10T13:02:18;3.03;;;1.77;;
40807;SDS011;26523;52.504;13.498;2023-05-10T13:04:45;5.25;;;1.65;;
40807;SDS011;26523;52.504;13.498;2023-05-10T13:07:11;3.10;;;1.60;;
40807;SDS011;26523;52.504;13.498;2023-05-10T13:09:37;3.30;;;1.50;;
40807;SDS011;26523;52.504;13.498;2023-05-10T13:12:03;3.83;;;1.60;;
40807;SDS011;26523;52.504;13.498;2023-05-10T13:14:29;4.07;;;1.95;;
40807;SDS011;26523;52.504;13.498;2023-05-10T13:16:55;4.47;;;2.03;;
40807;SDS011;26523;52.504;13.498;2023-05-10T13:19:20;3.58;;;1.60;;
40807;SDS011;26523;52.504;13.498;2023-05-10T13:21:46;6.30;;;1.95;;
40807;SDS011;26523;52.504;13.498;2023-05-10T13:24:12;4.88;;;1.65;;
40807;SDS011;26523;52.504;13.498;2023-05-10T13:26:40;4.03;;;1.55;;
40807;SDS011;26523;52.504;13.498;2023-05-10T13:29:06;3.20;;;1.30;;
40807;SDS011;26523;52.504;13.498;2023-05-10T13:31:33;2.60;;;1.52;;
40807;SDS011;26523;52.504;13.498;2023-05-10T13:33:59;5.57;;;1.70;;
40807;SDS011;26523;52.504;13.498;2023-05-10T13:36:25;5.25;;;2.15;;
40807;SDS011;26523;52.504;13.498;2023-05-10T13:38:51;3.50;;;1.30;;
40807;SDS011;26523;52.504;13.498;2023-05-10T13:41:16;3.90;;;2.08;;
40807;SDS011;26523;52.504;13.498;2023-05-10T13:43:42;3.60;;;1.65;;
40807;SDS011;26523;52.504;13.498;2023-05-10T13:46:08;4.30;;;1.35;;
40807;SDS011;26523;52.504;13.498;2023-05-10T13:48:34;2.92;;;1.80;;
40807;SDS011;26523;52.504;13.498;2023-05-10T13:51:01;3.03;;;1.60;;
40807;SDS011;26523;52.504;13.498;2023-05-10T13:53:27;4.40;;;1.50;;
40807;SDS011;26523;52.504;13.498;2023-05-10T13:55:53;5.05;;;1.88;;
40807;SDS011;26523;52.504;13.498;2023-05-10T13:58:18;4.72;;;1.90;;
40807;SDS011;26523;52.504;13.498;2023-05-10T14:00:44;7.93;;;2.20;;
40807;SDS011;26523;52.504;13.498;2023-05-10T14:03:10;3.33;;;1.58;;
40807;SDS011;26523;52.504;13.498;2023-05-10T14:05:35;4.75;;;1.77;;
40807;SDS011;26523;52.504;13.498;2023-05-10T14:08:01;5.75;;;1.70;;
40807;SDS011;26523;52.504;13.498;2023-05-10T14:10:27;2.63;;;1.65;;
40807;SDS011;26523;52.504;13.498;2023-05-10T14:12:53;3.20;;;1.60;;
40807;SDS011;26523;52.504;13.498;2023-05-10T14:15:18;7.57;;;2.95;;
40807;SDS011;26523;52.504;13.498;2023-05-10T14:17:44;2.38;;;1.52;;
40807;SDS011;26523;52.504;13.498;2023-05-10T14:20:10;3.28;;;1.58;;
40807;SDS011;26523;52.504;13.498;2023-05-10T14:22:36;3.40;;;1.65;;
40807;SDS011;26523;52.504;13.498;2023-05-10T14:25:01;5.80;;;1.77;;
40807;SDS011;26523;52.504;13.498;2023-05-10T14:27:27;2.88;;;1.38;;
40807;SDS011;26523;52.504;13.498;2023-05-10T14:29:53;9.35;;;1.73;;
40807;SDS011;26523;52.504;13.498;2023-05-10T14:32:19;5.65;;;1.55;;
40807;SDS011;26523;52.504;13.498;2023-05-10T14:34:44;2.75;;;1.48;;
40807;SDS011;26523;52.504;13.498;2023-05-10T14:37:10;3.58;;;1.80;;
40807;SDS011;26523;52.504;13.498;2023-05-10T14:39:36;4.40;;;2.00;;
40807;SDS011;26523;52.504;13.498;2023-05-10T14:42:02;2.35;;;1.50;;
40807;SDS011;26523;52.504;13.498;2023-05-10T14:44:28;2.95;;;1.80;;
40807;SDS011;26523;52.504;13.498;2023-05-10T14:46:54;2.78;;;1.40;;
40807;SDS011;26523;52.504;13.498;2023-05-10T14:49:21;4.05;;;1.40;;
40807;SDS011;26523;52.504;13.498;2023-05-10T14:51:49;2.60;;;1.60;;
40807;SDS011;26523;52.504;13.498;2023-05-10T14:54:15;2.90;;;1.35;;
40807;SDS011;26523;52.504;13.498;2023-05-10T14:56:41;3.10;;;1.40;;
40807;SDS011;26523;52.504;13.498;2023-05-10T14:59:07;3.35;;;1.40;;
40807;SDS011;26523;52.504;13.498;2023-05-10T15:01:32;2.83;;;1.73;;
40807;SDS011;26523;52.504;13.498;2023-05-10T15:04:02;3.50;;;1.60;;
40807;SDS011;26523;52.504;13.498;2023-05-10T15:06:31;5.60;;;2.20;;
40807;SDS011;26523;52.504;13.498;2023-05-10T15:08:58;3.10;;;1.70;;